createdAt,value
2023-12-15T00:01:25.726Z,93.31
2023-12-15T00:06:24.446Z,92.43
2023-12-15T00:11:23.232Z,90.48
2023-12-15T00:16:21.984Z,91.92
2023-12-15T00:21:21.733Z,90.40
2023-12-15T00:26:20.472Z,91.17
2023-12-15T00:31:19.241Z,94.25
2023-12-15T00:36:18.038Z,94.36
2023-12-15T00:41:16.853Z,94.15
2023-12-15T00:46:15.772Z,92.32
2023-12-15T00:51:14.718Z,92.73
2023-12-15T00:56:13.545Z,93.73
2023-12-15T01:01:12.406Z,93.35
2023-12-15T01:06:11.330Z,90.81
2023-12-15T01:11:10.290Z,90.59
2023-12-15T01:16:09.404Z,91.16
2023-12-15T01:21:08.305Z,91.60
2023-12-15T01:26:07.174Z,90.06
2023-12-15T01:31:06.154Z,90.45
2023-12-15T01:36:05.383Z,91.18
2023-12-15T01:41:04.467Z,90.92
2023-12-15T01:46:08.925Z,94.01
2023-12-15T01:51:15.267Z,95.29
2023-12-15T01:56:14.204Z,93.73
2023-12-15T02:01:13.112Z,94.75
2023-12-15T02:06:12.000Z,92.93
2023-12-15T02:11:10.878Z,92.69
2023-12-15T02:16:09.754Z,91.36
2023-12-15T02:21:08.558Z,92.92
2023-12-15T02:26:07.407Z,96.21
2023-12-15T02:31:06.383Z,98.31
2023-12-15T02:36:05.473Z,97.04
2023-12-15T02:41:04.557Z,97.26
2023-12-15T02:46:03.432Z,97.03
2023-12-15T02:51:02.185Z,96.89
2023-12-15T02:56:01.133Z,97.37
2023-12-15T03:00:59.990Z,98.30
2023-12-15T03:05:58.896Z,96.19
2023-12-15T03:10:59.154Z,96.60
2023-12-15T03:16:08.194Z,96.70
2023-12-15T03:21:07.382Z,97.21
2023-12-15T03:26:07.717Z,97.60
2023-12-15T03:31:10.061Z,96.41
2023-12-15T03:36:09.061Z,95.84
2023-12-15T03:41:07.918Z,96.45
2023-12-15T03:46:06.972Z,93.17
2023-12-15T03:51:05.962Z,93.86
2023-12-15T03:56:06.381Z,95.70
2023-12-15T04:01:05.517Z,93.39
2023-12-15T04:06:08.903Z,91.79
2023-12-15T04:11:07.968Z,91.38
2023-12-15T04:16:07.283Z,90.67
2023-12-15T04:21:06.780Z,92.83
2023-12-15T04:26:05.829Z,92.32
2023-12-15T04:31:05.033Z,90.99
2023-12-15T04:36:04.926Z,90.28
2023-12-15T04:41:03.942Z,90.78
2023-12-15T04:46:02.742Z,92.26
2023-12-15T04:51:01.513Z,91.05
2023-12-15T04:56:00.429Z,92.46
2023-12-15T05:00:59.304Z,92.64
2023-12-15T05:05:58.324Z,91.32
2023-12-15T05:10:57.840Z,91.29
2023-12-15T05:15:56.659Z,91.95
2023-12-15T05:20:55.470Z,90.88
2023-12-15T05:25:54.324Z,91.77
2023-12-15T05:30:53.272Z,91.36
2023-12-15T05:35:52.185Z,90.59
2023-12-15T05:40:51.075Z,90.51
2023-12-15T05:45:49.915Z,100.00
2023-12-15T05:50:48.836Z,81.74
2023-12-15T05:55:49.038Z,74.60
2023-12-15T06:00:50.510Z,72.75
2023-12-15T06:05:49.600Z,75.77
2023-12-15T06:10:49.427Z,73.51
2023-12-15T06:15:48.254Z,77.50
2023-12-15T06:20:47.124Z,80.21
2023-12-15T06:25:45.964Z,83.10
2023-12-15T06:30:44.968Z,82.84
2023-12-15T06:35:43.846Z,84.92
2023-12-15T06:40:42.631Z,87.63
2023-12-15T06:45:41.883Z,84.39
2023-12-15T06:50:40.733Z,83.71
2023-12-15T06:55:39.636Z,82.06
2023-12-15T07:00:40.576Z,82.53
2023-12-15T07:05:39.477Z,81.08
2023-12-15T07:10:38.205Z,82.01
2023-12-15T07:15:37.069Z,81.13
2023-12-15T07:20:35.877Z,79.62
2023-12-15T07:25:34.717Z,81.27
2023-12-15T07:30:33.624Z,84.11
2023-12-15T07:35:33.576Z,80.79
2023-12-15T07:40:32.589Z,83.01
2023-12-15T07:45:31.486Z,82.82
2023-12-15T07:50:31.910Z,83.97
2023-12-15T07:55:30.911Z,86.52
2023-12-15T08:00:29.942Z,86.28
2023-12-15T08:05:28.965Z,86.84
2023-12-15T08:10:30.623Z,87.23
2023-12-15T08:15:29.401Z,86.49
2023-12-15T08:20:28.190Z,89.60
2023-12-15T08:25:26.990Z,88.59
2023-12-15T08:30:25.885Z,87.38
2023-12-15T08:35:25.112Z,87.70
2023-12-15T08:40:24.842Z,87.73
2023-12-15T08:45:23.890Z,87.75
2023-12-15T08:50:22.748Z,83.90
2023-12-15T08:55:21.634Z,82.42
2023-12-15T09:00:20.635Z,79.26
2023-12-15T09:05:31.272Z,80.68
2023-12-15T09:10:45.005Z,77.63
2023-12-15T09:15:43.877Z,78.45
2023-12-15T09:20:42.845Z,80.90
2023-12-15T09:25:41.679Z,78.67
2023-12-15T09:30:40.917Z,76.52
2023-12-15T09:35:40.072Z,77.14
2023-12-15T09:40:39.106Z,76.66
2023-12-15T09:45:40.399Z,74.86
2023-12-15T09:50:41.520Z,72.53
2023-12-15T09:55:40.980Z,73.67
2023-12-15T10:00:40.391Z,76.41
2023-12-15T10:05:39.461Z,75.10
2023-12-15T10:10:38.949Z,76.26
2023-12-15T10:15:37.769Z,73.34
2023-12-15T10:20:36.724Z,72.71
2023-12-15T10:25:35.599Z,71.00
2023-12-15T10:30:36.759Z,72.29
2023-12-15T10:35:38.210Z,74.42
2023-12-15T10:40:36.986Z,69.08
2023-12-15T10:45:36.503Z,73.09
2023-12-15T10:50:37.379Z,71.50
2023-12-15T10:55:39.263Z,71.90
2023-12-15T11:00:39.957Z,71.53
2023-12-15T11:05:41.591Z,70.33
2023-12-15T11:10:40.961Z,68.51
2023-12-15T11:15:41.854Z,69.44
2023-12-15T11:20:42.451Z,72.06
2023-12-15T11:25:47.345Z,72.72
2023-12-15T11:30:55.508Z,72.33
2023-12-15T11:35:55.001Z,73.64
2023-12-15T11:40:55.047Z,73.34
2023-12-15T11:45:54.983Z,72.29
2023-12-15T11:50:53.745Z,71.98
2023-12-15T11:55:53.472Z,73.16
2023-12-15T12:00:52.301Z,73.63
2023-12-15T12:05:56.226Z,73.60
2023-12-15T12:10:55.828Z,73.06
2023-12-15T12:15:56.334Z,71.45
2023-12-15T12:20:57.265Z,73.63
2023-12-15T12:25:58.200Z,73.44
2023-12-15T12:30:58.002Z,72.89
2023-12-15T12:35:57.001Z,74.93
2023-12-15T12:40:56.349Z,74.31
2023-12-15T12:45:55.285Z,75.89
2023-12-15T12:50:54.094Z,76.39
2023-12-15T12:55:53.307Z,76.29
2023-12-15T13:00:54.020Z,75.44
2023-12-15T13:05:54.181Z,76.74
2023-12-15T13:10:53.429Z,77.79
2023-12-15T13:15:52.357Z,78.76
2023-12-15T13:20:51.367Z,79.23
2023-12-15T13:25:50.373Z,80.08
2023-12-15T13:30:49.973Z,79.64
2023-12-15T13:35:50.053Z,80.40
2023-12-15T13:40:49.129Z,81.90
2023-12-15T13:45:54.030Z,82.85
2023-12-15T13:50:57.858Z,83.28
2023-12-15T13:55:57.071Z,84.38
2023-12-15T14:00:56.062Z,85.13
2023-12-15T14:05:55.556Z,83.22
2023-12-15T14:10:54.463Z,84.17
2023-12-15T14:15:53.307Z,83.64
2023-12-15T14:20:53.561Z,83.10
2023-12-15T14:25:52.871Z,84.67
2023-12-15T14:30:52.638Z,81.97
2023-12-15T14:35:51.747Z,82.57
2023-12-15T14:40:50.755Z,83.65
2023-12-15T14:45:49.962Z,84.28
2023-12-15T14:50:50.470Z,84.81
2023-12-15T14:55:49.359Z,84.55
2023-12-15T15:00:48.169Z,83.93
2023-12-15T15:05:47.216Z,84.09
2023-12-15T15:10:47.753Z,83.67
2023-12-15T15:15:46.649Z,84.09
2023-12-15T15:20:45.599Z,84.41
2023-12-15T15:25:44.966Z,82.78
2023-12-15T15:30:43.967Z,83.23
2023-12-15T15:35:42.933Z,83.06
2023-12-15T15:40:41.931Z,90.34
2023-12-15T15:45:40.921Z,82.71
2023-12-15T15:50:40.595Z,76.54
2023-12-15T15:55:39.419Z,79.00
2023-12-15T16:00:38.303Z,82.78
2023-12-15T16:05:37.702Z,84.35
2023-12-15T16:10:44.662Z,85.48
2023-12-15T16:15:44.705Z,86.03
2023-12-15T16:20:43.591Z,86.49
2023-12-15T16:25:42.511Z,85.34
2023-12-15T16:30:41.531Z,84.87
2023-12-15T16:35:40.434Z,85.34
2023-12-15T16:40:39.210Z,83.63
2023-12-15T16:45:38.008Z,84.26
2023-12-15T16:50:36.999Z,83.38
2023-12-15T16:55:35.786Z,81.97
2023-12-15T17:00:34.692Z,80.91
2023-12-15T17:05:35.064Z,81.62
2023-12-15T17:10:33.948Z,81.39
2023-12-15T17:15:34.164Z,80.59
2023-12-15T17:20:33.118Z,81.61
2023-12-15T17:25:31.871Z,82.93
2023-12-15T17:30:30.723Z,82.47
2023-12-15T17:35:29.536Z,82.14
2023-12-15T17:40:29.155Z,81.36
2023-12-15T17:45:28.143Z,81.08
2023-12-15T17:50:27.115Z,82.05
2023-12-15T17:55:26.122Z,81.79
2023-12-15T18:00:24.971Z,81.45
2023-12-15T18:05:24.862Z,80.53
2023-12-15T18:10:23.728Z,79.87
2023-12-15T18:15:22.701Z,80.85
2023-12-15T18:20:21.658Z,81.16
2023-12-15T18:25:20.628Z,82.21
2023-12-15T18:30:22.697Z,82.52
2023-12-15T18:35:21.808Z,83.78
2023-12-15T18:40:20.600Z,82.93
2023-12-15T18:45:19.579Z,85.64
2023-12-15T18:50:18.513Z,84.43
2023-12-15T18:55:17.799Z,95.19
2023-12-15T19:00:21.788Z,80.33
2023-12-15T19:05:22.288Z,82.57
2023-12-15T19:10:21.423Z,82.70
2023-12-15T19:15:21.945Z,82.30
2023-12-15T19:20:21.135Z,82.74
2023-12-15T19:25:20.098Z,82.81
2023-12-15T19:30:19.911Z,83.91
2023-12-15T19:35:19.307Z,82.94
2023-12-15T19:40:18.397Z,82.90
2023-12-15T19:45:17.586Z,82.90
2023-12-15T19:50:16.609Z,83.73
2023-12-15T19:55:16.179Z,83.49
2023-12-15T20:00:15.657Z,82.55
2023-12-15T20:05:20.470Z,82.00
2023-12-15T20:10:19.600Z,83.10
2023-12-15T20:15:18.698Z,83.00
2023-12-15T20:20:17.625Z,82.92
2023-12-15T20:25:16.494Z,81.46
2023-12-15T20:30:15.559Z,80.51
2023-12-15T20:35:14.552Z,80.51
2023-12-15T20:40:14.029Z,81.64
2023-12-15T20:45:13.757Z,81.86
2023-12-15T20:50:12.932Z,82.98
2023-12-15T20:55:16.366Z,83.92
2023-12-15T21:00:15.760Z,82.91
2023-12-15T21:05:14.896Z,83.15
2023-12-15T21:10:15.243Z,83.72
2023-12-15T21:15:14.165Z,82.58
2023-12-15T21:20:14.142Z,81.41
2023-12-15T21:25:13.423Z,82.74
2023-12-15T21:30:13.733Z,82.57
2023-12-15T21:35:14.885Z,83.84
2023-12-15T21:40:14.309Z,84.38
2023-12-15T21:45:13.223Z,83.77
2023-12-15T21:50:12.251Z,85.56
2023-12-15T21:55:11.255Z,85.71
2023-12-15T22:00:12.306Z,85.81
2023-12-15T22:05:11.353Z,87.40
2023-12-15T22:10:11.820Z,88.94
2023-12-15T22:15:10.790Z,88.63
2023-12-15T22:20:09.961Z,89.04
2023-12-15T22:25:09.367Z,89.32
2023-12-15T22:30:11.095Z,89.41
2023-12-15T22:35:10.058Z,88.71
2023-12-15T22:40:09.572Z,87.49
2023-12-15T22:45:08.856Z,87.30
2023-12-15T22:50:08.618Z,88.10
2023-12-15T22:55:08.415Z,86.50
2023-12-15T23:00:09.146Z,86.91
2023-12-15T23:05:09.350Z,86.93
2023-12-15T23:10:09.896Z,87.25
2023-12-15T23:15:15.044Z,88.90
2023-12-15T23:20:19.347Z,88.95
2023-12-15T23:25:18.544Z,88.97
2023-12-15T23:30:19.432Z,88.37
2023-12-15T23:35:19.610Z,88.93
2023-12-15T23:40:18.650Z,87.85
2023-12-15T23:45:17.556Z,86.75
2023-12-15T23:50:16.500Z,86.21
2023-12-15T23:55:15.419Z,86.74
